createdAt,value
2022-09-18T00:01:39.338Z,51.98
2022-09-18T00:04:09.225Z,52.11
2022-09-18T00:06:40.334Z,52.25
2022-09-18T00:09:10.400Z,52.36
2022-09-18T00:11:40.586Z,52.43
2022-09-18T00:14:12.457Z,52.43
2022-09-18T00:16:41.688Z,52.48
2022-09-18T00:19:10.549Z,52.56
2022-09-18T00:21:41.970Z,52.52
2022-09-18T00:24:10.438Z,52.53
2022-09-18T00:26:39.539Z,52.49
2022-09-18T00:29:09.616Z,52.46
2022-09-18T00:31:38.343Z,52.47
2022-09-18T00:34:08.929Z,52.56
2022-09-18T00:36:38.668Z,52.78
2022-09-18T00:39:07.670Z,52.88
2022-09-18T00:41:39.802Z,52.82
2022-09-18T00:44:37.755Z,52.69
2022-09-18T00:47:21.747Z,52.98
2022-09-18T00:49:56.396Z,53.23
2022-09-18T00:52:28.912Z,53.23
2022-09-18T00:55:03.769Z,53.42
2022-09-18T00:57:34.658Z,53.99
2022-09-18T01:00:09.939Z,54.19
2022-09-18T01:02:38.633Z,54.75
2022-09-18T01:05:08.159Z,54.86
2022-09-18T01:07:52.637Z,54.62
2022-09-18T01:10:33.362Z,54.64
2022-09-18T01:13:09.686Z,54.76
2022-09-18T01:15:48.697Z,54.61
2022-09-18T01:18:26.450Z,54.59
2022-09-18T01:21:03.602Z,54.81
2022-09-18T01:24:14.838Z,54.82
2022-09-18T01:27:00.239Z,55.01
2022-09-18T01:29:40.934Z,54.81
2022-09-18T01:32:14.218Z,54.85
2022-09-18T01:34:48.114Z,54.61
2022-09-18T01:37:21.429Z,54.37
2022-09-18T01:39:58.185Z,54.31
2022-09-18T01:42:30.000Z,54.49
2022-09-18T01:45:05.890Z,54.56
2022-09-18T01:47:40.451Z,54.81
2022-09-18T01:50:11.690Z,54.99
2022-09-18T01:52:46.138Z,55.17
2022-09-18T01:55:20.467Z,55.33
2022-09-18T01:57:54.606Z,55.39
2022-09-18T02:00:25.331Z,55.38
2022-09-18T02:02:59.730Z,55.30
2022-09-18T02:05:34.674Z,55.23
2022-09-18T02:08:11.008Z,55.07
2022-09-18T02:10:43.594Z,54.87
2022-09-18T02:13:17.618Z,55.27
2022-09-18T02:15:50.660Z,55.29
2022-09-18T02:18:26.769Z,55.96
2022-09-18T02:20:57.671Z,56.26
2022-09-18T02:23:26.937Z,56.55
2022-09-18T02:25:58.893Z,56.21
2022-09-18T02:28:28.832Z,55.40
2022-09-18T02:30:59.485Z,55.04
2022-09-18T02:33:29.802Z,54.62
2022-09-18T02:36:27.437Z,54.02
2022-09-18T02:39:07.258Z,54.27
2022-09-18T02:41:45.120Z,54.04
2022-09-18T02:44:20.869Z,54.09
2022-09-18T02:47:01.651Z,54.01
2022-09-18T02:49:37.836Z,53.97
2022-09-18T02:52:11.989Z,53.88
2022-09-18T02:54:48.458Z,53.77
2022-09-18T02:57:20.752Z,53.72
2022-09-18T02:59:52.859Z,53.83
2022-09-18T03:02:23.514Z,54.01
2022-09-18T03:04:52.772Z,54.24
2022-09-18T03:07:44.582Z,54.33
2022-09-18T03:10:13.202Z,54.31
2022-09-18T03:12:41.507Z,54.23
2022-09-18T03:15:11.116Z,54.07
2022-09-18T03:17:43.500Z,53.96
2022-09-18T03:20:13.158Z,53.90
2022-09-18T03:22:41.506Z,53.97
2022-09-18T03:25:13.454Z,54.05
2022-09-18T03:27:43.119Z,54.17
2022-09-18T03:30:15.476Z,54.30
2022-09-18T03:32:45.171Z,54.43
2022-09-18T03:35:13.562Z,54.41
2022-09-18T03:37:41.865Z,54.46
2022-09-18T03:40:12.313Z,54.48
2022-09-18T03:42:44.331Z,54.71
2022-09-18T03:45:13.270Z,54.84
2022-09-18T03:47:41.519Z,55.18
2022-09-18T03:50:12.483Z,55.65
2022-09-18T03:52:40.916Z,55.88
2022-09-18T03:55:24.408Z,56.14
2022-09-18T03:58:11.151Z,56.38
2022-09-18T04:00:57.539Z,56.68
2022-09-18T04:03:34.727Z,56.97
2022-09-18T04:06:22.360Z,56.98
2022-09-18T04:09:10.823Z,57.26
2022-09-18T04:11:45.389Z,57.39
2022-09-18T04:14:14.397Z,57.46
2022-09-18T04:16:42.411Z,57.84
2022-09-18T04:19:10.569Z,57.77
2022-09-18T04:21:41.057Z,57.77
2022-09-18T04:24:09.144Z,58.05
2022-09-18T04:26:37.745Z,58.35
2022-09-18T04:29:06.597Z,58.71
2022-09-18T04:31:36.363Z,58.99
2022-09-18T04:34:08.640Z,59.23
2022-09-18T04:36:37.174Z,59.47
2022-09-18T04:39:06.622Z,59.42
2022-09-18T04:41:36.936Z,59.43
2022-09-18T04:44:06.467Z,59.57
2022-09-18T04:46:34.697Z,59.86
2022-09-18T04:49:03.521Z,59.91
2022-09-18T04:51:31.650Z,60.06
2022-09-18T04:54:01.073Z,60.22
2022-09-18T04:56:30.561Z,60.69
2022-09-18T04:59:00.010Z,60.68
2022-09-18T05:01:28.525Z,60.37
2022-09-18T05:03:56.766Z,60.07
2022-09-18T05:06:38.742Z,59.54
2022-09-18T05:09:06.816Z,59.19
2022-09-18T05:11:36.235Z,58.64
2022-09-18T05:14:04.341Z,58.31
2022-09-18T05:16:34.695Z,57.94
2022-09-18T05:19:24.946Z,57.65
2022-09-18T05:21:59.663Z,57.32
2022-09-18T05:24:27.959Z,57.26
2022-09-18T05:26:57.339Z,57.08
2022-09-18T05:29:25.445Z,56.87
2022-09-18T05:31:58.977Z,56.84
2022-09-18T05:34:27.102Z,56.82
2022-09-18T05:36:55.443Z,56.90
2022-09-18T05:39:23.466Z,57.12
2022-09-18T05:41:51.851Z,57.39
2022-09-18T05:44:21.265Z,57.52
2022-09-18T05:46:50.150Z,57.64
2022-09-18T05:49:18.758Z,57.71
2022-09-18T05:51:46.883Z,57.92
2022-09-18T05:54:16.629Z,58.09
2022-09-18T05:56:49.075Z,58.43
2022-09-18T05:59:17.599Z,58.70
2022-09-18T06:01:49.797Z,58.80
2022-09-18T06:04:17.880Z,58.90
2022-09-18T06:06:52.374Z,58.90
2022-09-18T06:09:25.151Z,58.99
2022-09-18T06:11:53.474Z,59.05
2022-09-18T06:14:22.287Z,59.33
2022-09-18T06:16:52.093Z,59.48
2022-09-18T06:19:20.174Z,59.65
2022-09-18T06:21:49.527Z,59.72
2022-09-18T06:24:20.301Z,59.80
2022-09-18T06:26:57.342Z,59.73
2022-09-18T06:29:25.404Z,59.66
2022-09-18T06:32:01.115Z,59.69
2022-09-18T06:34:29.193Z,59.86
2022-09-18T06:37:03.383Z,60.12
2022-09-18T06:39:41.084Z,60.13
2022-09-18T06:42:11.545Z,60.28
2022-09-18T06:45:06.315Z,60.42
2022-09-18T06:47:36.299Z,60.48
2022-09-18T06:50:05.414Z,60.54
2022-09-18T06:52:33.630Z,60.54
2022-09-18T06:55:05.585Z,60.60
2022-09-18T06:57:34.469Z,60.73
2022-09-18T07:00:04.935Z,60.66
2022-09-18T07:02:39.474Z,60.67
2022-09-18T07:05:46.562Z,60.63
2022-09-18T07:08:27.272Z,60.60
2022-09-18T07:11:02.524Z,60.78
2022-09-18T07:13:32.488Z,60.83
2022-09-18T07:16:01.113Z,60.86
2022-09-18T07:18:31.098Z,60.91
2022-09-18T07:21:00.127Z,61.03
2022-09-18T07:23:36.184Z,61.14
2022-09-18T07:26:05.413Z,61.06
2022-09-18T07:28:34.984Z,61.13
2022-09-18T07:31:13.571Z,61.07
2022-09-18T07:33:43.108Z,61.08
2022-09-18T07:36:16.830Z,61.02
2022-09-18T07:38:45.107Z,60.90
2022-09-18T07:41:13.262Z,61.00
2022-09-18T07:43:45.195Z,61.03
2022-09-18T07:46:13.321Z,60.97
2022-09-18T07:48:43.066Z,61.10
2022-09-18T07:51:16.293Z,61.18
2022-09-18T07:53:48.875Z,61.23
2022-09-18T07:56:24.790Z,61.15
2022-09-18T07:58:53.482Z,61.20
2022-09-18T08:01:26.270Z,61.26
2022-09-18T08:03:58.200Z,61.31
2022-09-18T08:06:46.095Z,61.52
2022-09-18T08:09:26.771Z,61.59
2022-09-18T08:11:54.966Z,61.62
2022-09-18T08:14:29.349Z,61.64
2022-09-18T08:17:22.226Z,61.54
2022-09-18T08:20:10.414Z,61.42
2022-09-18T08:22:46.928Z,61.47
2022-09-18T08:25:15.888Z,61.54
2022-09-18T08:27:48.434Z,61.69
2022-09-18T08:30:22.825Z,61.83
2022-09-18T08:32:59.163Z,61.54
2022-09-18T08:35:29.155Z,61.31
2022-09-18T08:38:02.631Z,61.17
2022-09-18T08:41:24.666Z,61.03
2022-09-18T08:44:04.153Z,61.05
2022-09-18T08:46:36.771Z,61.04
2022-09-18T08:49:18.027Z,61.08
2022-09-18T08:51:54.546Z,61.08
2022-09-18T08:54:33.474Z,60.95
2022-09-18T08:57:35.822Z,61.39
2022-09-18T09:00:23.721Z,60.66
2022-09-18T09:03:27.608Z,59.64
2022-09-18T09:06:01.427Z,58.58
2022-09-18T09:08:42.362Z,58.54
2022-09-18T09:11:18.231Z,58.86
2022-09-18T09:14:00.231Z,59.24
2022-09-18T09:16:41.083Z,59.73
2022-09-18T09:19:22.079Z,61.15
2022-09-18T09:21:57.810Z,61.69
2022-09-18T09:24:36.092Z,59.73
2022-09-18T09:27:34.589Z,59.77
2022-09-18T09:30:39.361Z,56.10
2022-09-18T09:33:43.686Z,56.18
2022-09-18T09:36:33.236Z,54.75
2022-09-18T09:39:10.140Z,54.03
2022-09-18T09:42:26.153Z,54.19
2022-09-18T09:44:58.716Z,52.85
2022-09-18T09:47:43.404Z,51.49
2022-09-18T09:50:38.823Z,52.52
2022-09-18T09:53:14.506Z,53.26
2022-09-18T09:55:51.187Z,54.63
2022-09-18T09:58:31.402Z,55.92
2022-09-18T10:01:07.709Z,57.22
2022-09-18T10:03:49.073Z,58.29
2022-09-18T10:06:40.203Z,59.61
2022-09-18T10:09:17.794Z,58.81
2022-09-18T10:11:57.578Z,57.45
2022-09-18T10:14:32.270Z,55.36
2022-09-18T10:17:03.011Z,53.13
2022-09-18T10:19:37.703Z,50.78
2022-09-18T10:22:09.055Z,50.10
2022-09-18T10:24:47.171Z,48.89
2022-09-18T10:27:19.038Z,43.33
2022-09-18T10:29:48.634Z,42.87
2022-09-18T10:32:36.947Z,44.82
2022-09-18T10:35:41.509Z,44.09
2022-09-18T10:38:34.250Z,45.26
2022-09-18T10:41:28.583Z,42.89
2022-09-18T10:44:00.955Z,42.48
2022-09-18T10:46:35.229Z,40.08
2022-09-18T10:49:18.094Z,39.81
2022-09-18T10:51:47.099Z,39.10
2022-09-18T10:54:18.742Z,37.45
2022-09-18T10:56:56.787Z,35.90
2022-09-18T10:59:35.914Z,37.01
2022-09-18T11:02:13.134Z,38.20
2022-09-18T11:04:41.289Z,39.72
2022-09-18T11:07:12.779Z,40.71
2022-09-18T11:09:43.068Z,40.82
2022-09-18T11:12:17.376Z,41.33
2022-09-18T11:14:50.590Z,40.97
2022-09-18T11:17:27.842Z,41.86
2022-09-18T11:19:57.919Z,42.19
2022-09-18T11:22:44.462Z,39.16
2022-09-18T11:25:31.527Z,37.63
2022-09-18T11:28:18.091Z,36.53
2022-09-18T11:30:55.329Z,35.81
2022-09-18T11:33:29.090Z,34.91
2022-09-18T11:36:02.944Z,33.17
2022-09-18T11:38:33.719Z,32.01
2022-09-18T11:41:04.352Z,31.34
2022-09-18T11:43:41.054Z,31.12
2022-09-18T11:46:17.022Z,30.41
2022-09-18T11:48:51.998Z,32.47
2022-09-18T11:51:26.833Z,33.46
2022-09-18T11:54:04.536Z,35.07
2022-09-18T11:56:41.232Z,35.65
2022-09-18T11:59:17.945Z,35.89
2022-09-18T12:01:51.261Z,36.98
2022-09-18T12:04:32.464Z,36.38
2022-09-18T12:07:12.972Z,32.99
2022-09-18T12:09:48.426Z,34.31
2022-09-18T12:12:21.280Z,32.17
2022-09-18T12:14:57.746Z,32.90
2022-09-18T12:17:38.426Z,33.60
2022-09-18T12:20:15.250Z,34.23
2022-09-18T12:22:47.707Z,32.39
2022-09-18T12:25:18.832Z,31.05
2022-09-18T12:28:18.235Z,30.86
2022-09-18T12:30:55.041Z,31.91
2022-09-18T12:33:37.654Z,32.16
2022-09-18T12:36:33.732Z,32.25
2022-09-18T12:39:13.924Z,33.42
2022-09-18T12:41:52.636Z,34.39
2022-09-18T12:44:47.034Z,33.90
2022-09-18T12:47:34.330Z,35.01
2022-09-18T12:50:30.273Z,36.44
2022-09-18T12:53:13.582Z,36.11
2022-09-18T12:55:58.810Z,36.77
2022-09-18T12:58:46.703Z,36.59
2022-09-18T13:01:27.099Z,37.76
2022-09-18T13:04:02.110Z,38.22
2022-09-18T13:06:38.361Z,38.04
2022-09-18T13:09:14.346Z,37.30
2022-09-18T13:11:47.789Z,37.01
2022-09-18T13:14:20.156Z,36.87
2022-09-18T13:16:52.589Z,36.71
2022-09-18T13:19:28.136Z,36.91
2022-09-18T13:21:58.526Z,37.36
2022-09-18T13:24:32.958Z,38.08
2022-09-18T13:27:02.960Z,37.68
2022-09-18T13:29:59.183Z,36.75
2022-09-18T13:32:40.356Z,35.98
2022-09-18T13:35:20.908Z,34.81
2022-09-18T13:37:49.955Z,34.58
2022-09-18T13:40:35.944Z,34.93
2022-09-18T13:43:39.874Z,34.92
2022-09-18T13:46:10.468Z,34.61
2022-09-18T13:48:45.942Z,34.79
2022-09-18T13:51:22.075Z,35.51
2022-09-18T13:54:16.969Z,34.15
2022-09-18T13:57:17.562Z,33.46
2022-09-18T13:59:47.821Z,33.76
2022-09-18T14:02:31.261Z,34.47
2022-09-18T14:05:05.465Z,36.09
2022-09-18T14:08:10.984Z,37.09
2022-09-18T14:11:15.804Z,39.40
2022-09-18T14:13:51.773Z,41.45
2022-09-18T14:16:33.379Z,41.72
2022-09-18T14:19:05.109Z,41.74
2022-09-18T14:21:40.238Z,40.84
2022-09-18T14:25:00.080Z,41.27
2022-09-18T14:27:50.735Z,40.26
2022-09-18T14:30:23.041Z,39.32
2022-09-18T14:33:16.016Z,40.42
2022-09-18T14:35:50.641Z,40.05
2022-09-18T14:38:27.458Z,39.46
2022-09-18T14:41:00.272Z,39.22
2022-09-18T14:43:28.687Z,39.30
2022-09-18T14:45:58.403Z,40.58
2022-09-18T14:48:31.613Z,39.75
2022-09-18T14:51:05.808Z,39.16
2022-09-18T14:53:43.779Z,39.11
2022-09-18T14:56:15.796Z,38.83
2022-09-18T14:58:46.377Z,41.84
2022-09-18T15:01:21.808Z,42.53
2022-09-18T15:03:52.157Z,43.71
2022-09-18T15:06:22.315Z,44.99
2022-09-18T15:08:53.551Z,45.67
2022-09-18T15:11:25.531Z,46.48
2022-09-18T15:13:55.073Z,47.87
2022-09-18T15:16:28.177Z,48.72
2022-09-18T15:18:56.910Z,48.26
2022-09-18T15:21:32.297Z,49.20
2022-09-18T15:24:03.384Z,49.50
2022-09-18T15:26:33.841Z,49.85
2022-09-18T15:29:03.723Z,51.10
2022-09-18T15:31:34.497Z,52.04
2022-09-18T15:34:09.322Z,53.00
2022-09-18T15:36:40.990Z,53.51
2022-09-18T15:39:28.237Z,54.27
2022-09-18T15:42:19.820Z,54.27
2022-09-18T15:45:20.223Z,54.03
2022-09-18T15:47:50.358Z,54.39
2022-09-18T15:50:38.461Z,54.09
2022-09-18T15:53:28.639Z,54.08
2022-09-18T15:56:05.682Z,54.23
2022-09-18T15:58:56.249Z,54.34
2022-09-18T16:01:29.509Z,54.41
2022-09-18T16:04:09.214Z,54.81
2022-09-18T16:06:43.894Z,55.26
2022-09-18T16:09:25.609Z,54.78
2022-09-18T16:11:54.187Z,54.90
2022-09-18T16:14:46.551Z,53.87
2022-09-18T16:17:37.060Z,53.54
2022-09-18T16:20:35.565Z,53.25
2022-09-18T16:23:15.236Z,52.98
2022-09-18T16:25:44.606Z,52.72
2022-09-18T16:28:25.381Z,52.51
2022-09-18T16:30:54.134Z,52.88
2022-09-18T16:33:23.964Z,53.56
2022-09-18T16:35:57.977Z,54.63
2022-09-18T16:38:26.036Z,55.74
2022-09-18T16:40:54.515Z,56.06
2022-09-18T16:43:23.330Z,56.03
2022-09-18T16:45:51.897Z,55.58
2022-09-18T16:48:20.648Z,55.48
2022-09-18T16:50:48.701Z,55.50
2022-09-18T16:53:18.142Z,55.62
2022-09-18T16:55:50.704Z,55.43
2022-09-18T16:58:22.120Z,55.52
2022-09-18T17:00:50.390Z,55.51
2022-09-18T17:03:19.223Z,55.78
2022-09-18T17:05:47.826Z,56.00
2022-09-18T17:08:17.524Z,56.32
2022-09-18T17:10:45.826Z,56.63
2022-09-18T17:13:14.053Z,56.77
2022-09-18T17:15:42.210Z,56.99
2022-09-18T17:18:10.248Z,57.63
2022-09-18T17:20:41.095Z,58.24
2022-09-18T17:23:09.326Z,58.83
2022-09-18T17:25:38.843Z,59.21
2022-09-18T17:28:07.085Z,59.48
2022-09-18T17:30:35.170Z,59.58
2022-09-18T17:33:03.185Z,59.75
2022-09-18T17:35:31.189Z,59.96
2022-09-18T17:37:59.250Z,60.12
2022-09-18T17:40:30.832Z,60.35
2022-09-18T17:43:00.501Z,60.51
2022-09-18T17:45:28.657Z,60.61
2022-09-18T17:47:56.854Z,60.56
2022-09-18T17:50:25.142Z,60.60
2022-09-18T17:52:53.206Z,60.70
2022-09-18T17:55:23.408Z,60.77
2022-09-18T17:57:52.911Z,60.85
2022-09-18T18:00:22.390Z,61.04
2022-09-18T18:02:50.488Z,61.34
2022-09-18T18:05:19.242Z,61.38
2022-09-18T18:07:47.270Z,61.31
2022-09-18T18:10:15.449Z,61.26
2022-09-18T18:12:43.505Z,61.45
2022-09-18T18:15:11.544Z,61.54
2022-09-18T18:17:43.151Z,61.61
2022-09-18T18:20:11.764Z,61.54
2022-09-18T18:22:39.769Z,61.56
2022-09-18T18:25:09.263Z,61.45
2022-09-18T18:30:27.494Z,61.38
2022-09-18T18:33:17.073Z,61.15
2022-09-18T18:35:45.870Z,60.87
2022-09-18T18:38:13.938Z,60.90
2022-09-18T18:40:41.970Z,60.99
2022-09-18T18:43:14.227Z,60.97
2022-09-18T18:46:07.733Z,61.15
2022-09-18T18:48:43.088Z,61.21
2022-09-18T18:51:14.059Z,61.43
2022-09-18T18:53:42.645Z,61.43
2022-09-18T18:56:18.368Z,61.22
2022-09-18T18:58:46.430Z,61.44
2022-09-18T19:01:17.109Z,61.40
2022-09-18T19:03:57.974Z,61.54
2022-09-18T19:06:44.180Z,61.76
2022-09-18T19:09:17.075Z,61.72
2022-09-18T19:11:48.375Z,61.88
2022-09-18T19:14:18.180Z,61.88
2022-09-18T19:16:47.251Z,61.81
2022-09-18T19:19:18.802Z,61.76
2022-09-18T19:21:47.304Z,61.75
2022-09-18T19:24:16.544Z,61.53
2022-09-18T19:26:45.611Z,61.21
2022-09-18T19:29:15.805Z,60.71
2022-09-18T19:31:45.702Z,60.25
2022-09-18T19:34:17.614Z,60.15
2022-09-18T19:36:57.648Z,59.94
2022-09-18T19:39:26.410Z,59.82
2022-09-18T19:42:09.960Z,59.64
2022-09-18T19:44:42.212Z,59.66
2022-09-18T19:47:17.820Z,59.54
2022-09-18T19:49:47.648Z,59.64
2022-09-18T19:52:18.633Z,59.71
2022-09-18T19:54:46.744Z,59.94
2022-09-18T19:57:14.816Z,59.90
2022-09-18T19:59:42.860Z,59.94
2022-09-18T20:02:14.070Z,59.87
2022-09-18T20:04:42.306Z,59.79
2022-09-18T20:07:12.549Z,59.74
2022-09-18T20:09:40.907Z,59.53
2022-09-18T20:12:09.993Z,59.29
2022-09-18T20:14:38.061Z,59.19
2022-09-18T20:17:06.185Z,59.04
2022-09-18T20:19:34.484Z,59.02
2022-09-18T20:22:03.020Z,59.12
2022-09-18T20:24:33.173Z,59.11
2022-09-18T20:27:01.721Z,59.19
2022-09-18T20:29:40.526Z,59.25
2022-09-18T20:35:14.509Z,59.27
2022-09-18T20:37:42.614Z,59.25
2022-09-18T20:40:12.904Z,59.35
2022-09-18T20:42:40.974Z,59.47
2022-09-18T20:45:09.401Z,59.75
2022-09-18T20:47:38.241Z,60.01
2022-09-18T20:50:07.730Z,60.40
2022-09-18T20:52:36.724Z,60.41
2022-09-18T20:55:08.796Z,60.41
2022-09-18T20:57:38.713Z,60.37
2022-09-18T21:00:09.272Z,60.36
2022-09-18T21:02:37.794Z,60.56
2022-09-18T21:05:08.546Z,60.68
2022-09-18T21:07:37.233Z,60.71
2022-09-18T21:10:06.326Z,60.68
2022-09-18T21:12:38.316Z,60.64
2022-09-18T21:15:13.687Z,60.54
2022-09-18T21:17:42.829Z,60.67
2022-09-18T21:20:12.165Z,60.64
2022-09-18T21:23:00.437Z,60.57
2022-09-18T21:25:31.082Z,60.49
2022-09-18T21:27:59.177Z,60.55
2022-09-18T21:30:28.741Z,60.50
2022-09-18T21:32:59.133Z,60.44
2022-09-18T21:35:27.119Z,60.43
2022-09-18T21:37:55.177Z,60.40
2022-09-18T21:40:24.137Z,60.42
2022-09-18T21:42:52.830Z,60.47
2022-09-18T21:45:21.000Z,60.36
2022-09-18T21:47:51.120Z,60.25
2022-09-18T21:50:19.185Z,60.37
2022-09-18T21:52:47.287Z,60.47
2022-09-18T21:55:15.602Z,60.53
2022-09-18T21:57:43.606Z,60.67
2022-09-18T22:00:12.717Z,60.89
2022-09-18T22:02:43.363Z,61.11
2022-09-18T22:05:14.073Z,61.18
2022-09-18T22:10:30.913Z,61.37
2022-09-18T22:12:59.202Z,61.25
2022-09-18T22:15:27.484Z,61.20
2022-09-18T22:17:55.802Z,61.00
2022-09-18T22:20:25.518Z,60.91
2022-09-18T22:22:55.078Z,60.77
2022-09-18T22:25:23.433Z,60.74
2022-09-18T22:27:51.763Z,60.74
2022-09-18T22:30:20.269Z,60.60
2022-09-18T22:32:48.726Z,60.62
2022-09-18T22:35:17.069Z,60.54
2022-09-18T22:37:46.709Z,60.39
2022-09-18T22:40:15.100Z,60.32
2022-09-18T22:42:43.441Z,60.31
2022-09-18T22:45:12.970Z,60.33
2022-09-18T22:47:41.238Z,60.31
2022-09-18T22:50:09.753Z,60.36
2022-09-18T22:52:38.344Z,60.45
2022-09-18T22:55:08.630Z,60.41
2022-09-18T22:57:36.912Z,60.40
2022-09-18T23:00:06.183Z,60.31
2022-09-18T23:02:34.502Z,60.36
2022-09-18T23:05:02.768Z,60.42
2022-09-18T23:07:31.043Z,60.32
2022-09-18T23:09:59.370Z,60.17
2022-09-18T23:12:29.030Z,60.25
2022-09-18T23:14:57.299Z,60.17
2022-09-18T23:17:25.549Z,60.05
2022-09-18T23:19:53.833Z,59.94
2022-09-18T23:22:22.531Z,59.93
2022-09-18T23:24:50.920Z,59.86
2022-09-18T23:27:19.151Z,59.80
2022-09-18T23:29:50.254Z,59.64
2022-09-18T23:32:18.670Z,59.59
2022-09-18T23:34:46.943Z,59.54
2022-09-18T23:37:15.236Z,59.62
2022-09-18T23:39:43.821Z,59.81
2022-09-18T23:42:12.047Z,60.25
2022-09-18T23:44:40.310Z,60.44
2022-09-18T23:47:10.250Z,60.43
2022-09-18T23:49:38.600Z,60.31
2022-09-18T23:52:06.909Z,60.18
2022-09-18T23:54:35.183Z,60.24
2022-09-18T23:57:03.419Z,60.41
2022-09-18T23:59:31.733Z,60.44
